Time;durP1;ratioP1;P1;durP2;ratioP2;P2;SDS_P1;SDS_P2;PMS_P1;PMS_P2;Temp;Humidity;BMP_temperature;BMP_pressure;BME280_temperature;BME280_humidity;BME280_pressure;Samples;Min_cycle;Max_cycle;Signal;HPM_P1;HPM_P2
2022/09/12 00:00:48;;;;;;;5.60;2.10;;;;;;;;;;4935579;29;20222;-63
2022/09/12 00:03:15;;;;;;;4.37;1.90;;;;;;;;;;4933940;29;20187;-63
2022/09/12 00:05:45;;;;;;;3.90;2.23;;;;;;;;;;4934848;29;20714;-63
2022/09/12 00:08:12;;;;;;;5.53;2.17;;;;;;;;;;4935554;29;20210;-63
2022/09/12 00:10:39;;;;;;;5.97;2.80;;;;;;;;;;4929483;29;20199;-63
2022/09/12 00:13:06;;;;;;;6.00;2.03;;;;;;;;;;4934619;29;20245;-63
2022/09/12 00:15:37;;;;;;;4.00;2.00;;;;;;;;;;4933218;29;20563;-63
2022/09/12 00:18:03;;;;;;;4.80;2.60;;;;;;;;;;4934742;29;20702;-63
2022/09/12 00:20:30;;;;;;;5.50;2.30;;;;;;;;;;4934570;29;20191;-64
2022/09/12 00:22:57;;;;;;;8.17;2.30;;;;;;;;;;4934070;29;20191;-63
2022/09/12 00:25:23;;;;;;;3.53;2.10;;;;;;;;;;4933845;29;20201;-63
2022/09/12 00:27:50;;;;;;;3.13;2.03;;;;;;;;;;4933756;29;20203;-63
2022/09/12 00:30:17;;;;;;;4.77;2.20;;;;;;;;;;4934493;29;20222;-64
2022/09/12 00:32:44;;;;;;;3.37;2.20;;;;;;;;;;4934124;29;20290;-63
2022/09/12 00:35:10;;;;;;;5.13;2.30;;;;;;;;;;4933657;29;20553;-63
2022/09/12 00:37:37;;;;;;;2.90;2.20;;;;;;;;;;4932826;29;20220;-64
2022/09/12 00:40:04;;;;;;;2.60;1.90;;;;;;;;;;4932794;29;20202;-64
2022/09/12 00:42:31;;;;;;;5.33;2.07;;;;;;;;;;4933531;29;20566;-63
2022/09/12 00:44:57;;;;;;;4.30;1.80;;;;;;;;;;4931799;29;20212;-63
2022/09/12 00:47:26;;;;;;;4.07;2.00;;;;;;;;;;4926560;29;20697;-63
2022/09/12 00:49:57;;;;;;;3.17;1.70;;;;;;;;;;4933347;29;20266;-63
2022/09/12 00:52:32;;;;;;;4.43;2.13;;;;;;;;;;4933989;29;20210;-63
2022/09/12 00:55:13;;;;;;;4.77;1.97;;;;;;;;;;4934861;29;20598;-64
2022/09/12 00:57:49;;;;;;;3.07;1.80;;;;;;;;;;4932602;29;20190;-63
2022/09/12 01:00:16;;;;;;;4.27;2.07;;;;;;;;;;4933917;29;20661;-63
2022/09/12 01:02:44;;;;;;;7.00;2.00;;;;;;;;;;4934693;29;20199;-64
2022/09/12 01:05:11;;;;;;;3.57;2.00;;;;;;;;;;4949294;29;20210;-63
2022/09/12 01:07:38;;;;;;;6.60;2.00;;;;;;;;;;4932535;29;20242;-63
2022/09/12 01:10:06;;;;;;;3.50;2.00;;;;;;;;;;4932551;29;20946;-63
2022/09/12 01:12:33;;;;;;;4.03;2.10;;;;;;;;;;4931173;29;20194;-63
2022/09/12 01:15:00;;;;;;;4.37;1.90;;;;;;;;;;4944895;29;20226;-64
2022/09/12 01:17:28;;;;;;;3.23;1.80;;;;;;;;;;4922625;29;20199;-63
2022/09/12 01:19:56;;;;;;;4.03;2.00;;;;;;;;;;4931395;29;20199;-64
2022/09/12 01:22:23;;;;;;;3.87;1.73;;;;;;;;;;4932773;29;22690;-64
2022/09/12 01:25:11;;;;;;;6.07;1.97;;;;;;;;;;4934737;29;20183;-63
2022/09/12 01:27:43;;;;;;;5.23;2.30;;;;;;;;;;4933331;29;20230;-63
2022/09/12 01:30:23;;;;;;;4.93;1.97;;;;;;;;;;4948154;29;20202;-64
2022/09/12 01:33:08;;;;;;;3.43;2.10;;;;;;;;;;4932446;29;20248;-63
2022/09/12 01:35:38;;;;;;;4.37;2.07;;;;;;;;;;4932608;29;20218;-63
2022/09/12 01:38:07;;;;;;;3.33;2.00;;;;;;;;;;4933510;29;20562;-63
2022/09/12 01:40:45;;;;;;;4.73;2.10;;;;;;;;;;4933767;29;20199;-63
2022/09/12 01:43:34;;;;;;;4.10;2.27;;;;;;;;;;4933644;29;20255;-63
2022/09/12 01:46:09;;;;;;;4.67;1.90;;;;;;;;;;4925710;29;20223;-63
2022/09/12 01:48:37;;;;;;;6.87;2.10;;;;;;;;;;4941972;29;20254;-63
2022/09/12 01:51:19;;;;;;;4.33;2.10;;;;;;;;;;4933990;29;20202;-63
2022/09/12 01:53:47;;;;;;;4.00;1.90;;;;;;;;;;4937982;29;20206;-63
2022/09/12 01:56:14;;;;;;;4.00;2.10;;;;;;;;;;4934119;29;20195;-64
2022/09/12 01:58:45;;;;;;;5.17;2.23;;;;;;;;;;4938137;29;20193;-63
2022/09/12 02:01:16;;;;;;;3.73;2.23;;;;;;;;;;4938641;29;20202;-64
2022/09/12 02:03:45;;;;;;;3.20;1.97;;;;;;;;;;4935141;29;20215;-63
2022/09/12 02:06:19;;;;;;;3.87;2.30;;;;;;;;;;4933458;29;20238;-63
2022/09/12 02:08:53;;;;;;;6.43;2.10;;;;;;;;;;4932285;29;20225;-64
2022/09/12 02:11:20;;;;;;;4.90;2.07;;;;;;;;;;4927481;29;20190;-63
2022/09/12 02:13:55;;;;;;;3.27;2.07;;;;;;;;;;4930869;29;20690;-64
2022/09/12 02:16:26;;;;;;;5.03;2.00;;;;;;;;;;4932334;29;20285;-63
2022/09/12 02:18:54;;;;;;;5.10;2.00;;;;;;;;;;4932044;29;20230;-63
2022/09/12 02:21:21;;;;;;;4.37;2.03;;;;;;;;;;4932834;29;20191;-63
2022/09/12 02:23:49;;;;;;;3.67;1.90;;;;;;;;;;4931316;29;20361;-63
2022/09/12 02:26:18;;;;;;;3.07;1.73;;;;;;;;;;4927657;29;20622;-63
2022/09/12 02:28:44;;;;;;;4.07;1.80;;;;;;;;;;4928285;29;20227;-62
2022/09/12 02:31:20;;;;;;;3.45;2.10;;;;;;;;;;4932049;29;20880;-63
2022/09/12 02:34:00;;;;;;;3.27;1.90;;;;;;;;;;4931895;29;20273;-63
2022/09/12 02:36:31;;;;;;;2.53;1.90;;;;;;;;;;4933808;29;20273;-62
2022/09/12 02:38:59;;;;;;;4.60;2.07;;;;;;;;;;4936632;29;20191;-62
2022/09/12 02:41:25;;;;;;;4.30;1.77;;;;;;;;;;4937264;29;20226;-63
2022/09/12 02:43:52;;;;;;;4.13;1.63;;;;;;;;;;4934730;29;20746;-63
2022/09/12 02:46:31;;;;;;;3.70;1.60;;;;;;;;;;4934682;29;20694;-63
2022/09/12 02:48:58;;;;;;;5.53;1.90;;;;;;;;;;4933635;29;20222;-64
2022/09/12 02:51:24;;;;;;;3.07;1.60;;;;;;;;;;4936349;29;20265;-62
2022/09/12 02:53:51;;;;;;;4.37;1.70;;;;;;;;;;4927622;29;20666;-63
2022/09/12 02:56:20;;;;;;;4.10;1.70;;;;;;;;;;4942486;28;20558;-63
2022/09/12 02:58:47;;;;;;;2.57;1.70;;;;;;;;;;4933953;29;20205;-63
2022/09/12 03:01:17;;;;;;;3.10;1.87;;;;;;;;;;4932443;29;20268;-63
2022/09/12 03:03:57;;;;;;;3.83;1.67;;;;;;;;;;4933243;29;20202;-63
2022/09/12 03:06:47;;;;;;;3.00;1.77;;;;;;;;;;4930329;29;20636;-63
2022/09/12 03:09:14;;;;;;;3.10;1.83;;;;;;;;;;4925920;29;20186;-62
2022/09/12 03:12:01;;;;;;;3.00;1.80;;;;;;;;;;4933235;29;20250;-63
2022/09/12 03:14:28;;;;;;;3.57;1.70;;;;;;;;;;4925210;29;20260;-62
2022/09/12 03:17:11;;;;;;;3.00;1.50;;;;;;;;;;4931843;29;20193;-62
2022/09/12 03:19:46;;;;;;;5.57;1.90;;;;;;;;;;4928226;29;20195;-64
2022/09/12 03:22:13;;;;;;;4.23;1.60;;;;;;;;;;4933055;29;20202;-63
2022/09/12 03:24:42;;;;;;;2.90;1.87;;;;;;;;;;4931671;29;20732;-63
2022/09/12 03:27:09;;;;;;;3.67;1.73;;;;;;;;;;4933106;29;20250;-62
2022/09/12 03:29:36;;;;;;;6.57;1.90;;;;;;;;;;4933742;29;20199;-62
2022/09/12 03:32:03;;;;;;;4.50;2.00;;;;;;;;;;4930007;29;20219;-65
2022/09/12 03:34:29;;;;;;;4.43;2.00;;;;;;;;;;4932828;29;20195;-63
2022/09/12 03:36:57;;;;;;;4.90;1.90;;;;;;;;;;4932708;29;20222;-62
2022/09/12 03:39:25;;;;;;;6.50;1.90;;;;;;;;;;4922127;29;20226;-62
2022/09/12 03:41:52;;;;;;;4.20;2.00;;;;;;;;;;4923563;28;20238;-64
2022/09/12 03:44:18;;;;;;;3.67;1.87;;;;;;;;;;4925234;28;20218;-62
2022/09/12 03:46:45;;;;;;;3.83;1.90;;;;;;;;;;4921674;29;20237;-64
2022/09/12 03:49:12;;;;;;;4.17;1.90;;;;;;;;;;4918603;29;20268;-62
2022/09/12 03:51:39;;;;;;;3.40;1.90;;;;;;;;;;4922313;29;20356;-63
2022/09/12 03:54:05;;;;;;;4.33;1.80;;;;;;;;;;4919930;29;20211;-63
2022/09/12 03:56:33;;;;;;;3.20;1.80;;;;;;;;;;4921210;29;20203;-64
2022/09/12 03:58:59;;;;;;;2.63;2.10;;;;;;;;;;4926652;28;20207;-63
2022/09/12 04:01:26;;;;;;;2.37;1.70;;;;;;;;;;4913133;28;20229;-63
2022/09/12 04:03:53;;;;;;;3.60;1.90;;;;;;;;;;4922539;29;20282;-62
2022/09/12 04:06:20;;;;;;;4.33;2.03;;;;;;;;;;4937305;28;20328;-64
2022/09/12 04:08:47;;;;;;;2.97;1.70;;;;;;;;;;4920214;29;20233;-63
2022/09/12 04:11:14;;;;;;;7.77;2.07;;;;;;;;;;4922046;29;20309;-63
2022/09/12 04:13:41;;;;;;;3.47;2.07;;;;;;;;;;4936748;28;20993;-64
2022/09/12 04:16:26;;;;;;;4.03;2.03;;;;;;;;;;4932710;29;20237;-64
2022/09/12 04:18:53;;;;;;;3.60;1.90;;;;;;;;;;4922071;29;20284;-63
2022/09/12 04:21:38;;;;;;;2.93;2.03;;;;;;;;;;4908003;28;20826;-65
2022/09/12 04:24:05;;;;;;;4.43;1.97;;;;;;;;;;4919862;29;20685;-66
2022/09/12 04:26:31;;;;;;;4.33;1.90;;;;;;;;;;4940441;28;20312;-64
2022/09/12 04:28:58;;;;;;;3.60;1.80;;;;;;;;;;4920975;29;20336;-62
2022/09/12 04:31:25;;;;;;;4.43;1.80;;;;;;;;;;4920910;29;21194;-62
2022/09/12 04:33:52;;;;;;;2.77;1.70;;;;;;;;;;4921477;29;20218;-62
2022/09/12 04:36:19;;;;;;;5.40;2.10;;;;;;;;;;4924352;28;20281;-62
2022/09/12 04:38:46;;;;;;;2.70;1.77;;;;;;;;;;4919804;29;20932;-64
2022/09/12 04:41:15;;;;;;;2.50;1.87;;;;;;;;;;4932116;28;20257;-63
2022/09/12 04:43:42;;;;;;;3.57;1.87;;;;;;;;;;4931678;29;20191;-63
2022/09/12 04:46:09;;;;;;;3.00;1.87;;;;;;;;;;4932636;29;20198;-63
2022/09/12 04:48:36;;;;;;;5.53;1.93;;;;;;;;;;4931737;29;20624;-63
2022/09/12 04:51:07;;;;;;;3.87;2.00;;;;;;;;;;4931637;29;20222;-63
2022/09/12 04:53:34;;;;;;;5.47;2.00;;;;;;;;;;4932214;29;20285;-64
2022/09/12 04:56:04;;;;;;;3.43;1.93;;;;;;;;;;4929728;29;20681;-63
2022/09/12 04:58:32;;;;;;;3.27;2.07;;;;;;;;;;4931006;29;20198;-64
2022/09/12 05:01:08;;;;;;;3.07;1.77;;;;;;;;;;4928318;29;20199;-65
2022/09/12 05:03:37;;;;;;;7.37;1.90;;;;;;;;;;4920868;29;20277;-64
2022/09/12 05:06:05;;;;;;;4.43;1.97;;;;;;;;;;4924877;29;20230;-64
2022/09/12 05:08:34;;;;;;;4.27;2.00;;;;;;;;;;4939094;28;20227;-63
2022/09/12 05:11:02;;;;;;;3.77;1.90;;;;;;;;;;4925486;28;20544;-64
2022/09/12 05:13:29;;;;;;;4.43;2.13;;;;;;;;;;4922709;29;20278;-64
2022/09/12 05:15:56;;;;;;;3.67;1.70;;;;;;;;;;4924489;29;20191;-63
2022/09/12 05:18:23;;;;;;;3.43;1.90;;;;;;;;;;4938545;28;20286;-63
2022/09/12 05:20:50;;;;;;;3.07;2.13;;;;;;;;;;4925439;29;20198;-65
2022/09/12 05:23:17;;;;;;;4.07;1.90;;;;;;;;;;4927294;29;20549;-63
2022/09/12 05:25:49;;;;;;;4.37;2.43;;;;;;;;;;4927293;29;20193;-65
2022/09/12 05:28:16;;;;;;;2.20;1.70;;;;;;;;;;4922828;29;20313;-65
2022/09/12 05:30:43;;;;;;;3.37;1.93;;;;;;;;;;4931361;28;20262;-65
2022/09/12 05:33:10;;;;;;;4.17;1.87;;;;;;;;;;4930966;29;20203;-64
2022/09/12 05:35:37;;;;;;;5.83;2.20;;;;;;;;;;4930988;29;20194;-65
2022/09/12 05:38:05;;;;;;;4.97;1.97;;;;;;;;;;4931404;29;20207;-65
2022/09/12 05:40:31;;;;;;;5.10;2.00;;;;;;;;;;4931222;29;20191;-65
2022/09/12 05:42:58;;;;;;;5.70;2.20;;;;;;;;;;4929780;29;20677;-65
2022/09/12 05:45:25;;;;;;;4.70;1.97;;;;;;;;;;4929114;29;20579;-65
2022/09/12 05:47:55;;;;;;;4.83;2.00;;;;;;;;;;4917896;29;20227;-64
2022/09/12 05:50:22;;;;;;;2.97;2.00;;;;;;;;;;4923054;29;20191;-64
2022/09/12 05:52:49;;;;;;;2.13;1.60;;;;;;;;;;4922450;29;20218;-66
2022/09/12 05:55:16;;;;;;;3.90;1.60;;;;;;;;;;4943809;29;20723;-64
2022/09/12 05:57:44;;;;;;;2.97;1.60;;;;;;;;;;4918569;29;20253;-65
2022/09/12 06:00:13;;;;;;;5.10;1.90;;;;;;;;;;4926223;29;20684;-64
2022/09/12 06:02:41;;;;;;;2.40;1.60;;;;;;;;;;4930499;29;20932;-65
2022/09/12 06:05:08;;;;;;;3.10;1.50;;;;;;;;;;4919412;29;20194;-64
2022/09/12 06:07:35;;;;;;;6.83;2.17;;;;;;;;;;4931191;29;20353;-65
2022/09/12 06:10:02;;;;;;;4.43;1.80;;;;;;;;;;4931713;29;20195;-64
2022/09/12 06:12:29;;;;;;;3.80;1.97;;;;;;;;;;4947613;28;20663;-65
2022/09/12 06:14:55;;;;;;;4.13;1.83;;;;;;;;;;4935036;29;20636;-64
2022/09/12 06:17:22;;;;;;;2.87;1.60;;;;;;;;;;4934684;29;20705;-64
2022/09/12 06:19:49;;;;;;;3.60;1.70;;;;;;;;;;4934967;29;20190;-64
2022/09/12 06:22:18;;;;;;;2.57;1.77;;;;;;;;;;4935502;29;20219;-64
2022/09/12 06:24:44;;;;;;;5.00;1.83;;;;;;;;;;4934734;29;20194;-64
2022/09/12 06:27:11;;;;;;;6.03;2.17;;;;;;;;;;4935063;29;20218;-65
2022/09/12 06:29:38;;;;;;;2.80;1.60;;;;;;;;;;4935071;29;20234;-64
2022/09/12 06:32:06;;;;;;;2.97;1.43;;;;;;;;;;4934406;29;20198;-64
2022/09/12 06:34:32;;;;;;;1.73;1.20;;;;;;;;;;4934810;28;20206;-65
2022/09/12 06:36:59;;;;;;;3.13;1.40;;;;;;;;;;4934382;29;20278;-65
2022/09/12 06:39:26;;;;;;;3.27;1.23;;;;;;;;;;4935031;28;20199;-64
2022/09/12 06:41:53;;;;;;;3.83;1.30;;;;;;;;;;4934805;29;20203;-64
2022/09/12 06:44:31;;;;;;;3.00;1.07;;;;;;;;;;4934672;29;20193;-65
2022/09/12 06:46:58;;;;;;;3.73;1.30;;;;;;;;;;4934359;29;20249;-64
2022/09/12 06:49:25;;;;;;;2.73;1.20;;;;;;;;;;4934747;29;20238;-64
2022/09/12 06:51:52;;;;;;;3.50;1.57;;;;;;;;;;4933819;29;20201;-64
2022/09/12 06:54:19;;;;;;;5.77;1.50;;;;;;;;;;4934502;29;20198;-65
2022/09/12 06:56:45;;;;;;;2.50;1.00;;;;;;;;;;4934262;29;20250;-64
2022/09/12 06:59:12;;;;;;;2.73;1.00;;;;;;;;;;4934809;29;20215;-64
2022/09/12 07:01:39;;;;;;;3.07;1.00;;;;;;;;;;4934509;28;20202;-64
2022/09/12 07:04:06;;;;;;;2.27;1.00;;;;;;;;;;4935324;29;20242;-64
2022/09/12 07:06:40;;;;;;;2.60;0.90;;;;;;;;;;4935598;29;20250;-64
2022/09/12 07:09:08;;;;;;;2.97;1.03;;;;;;;;;;4933418;29;20226;-65
2022/09/12 07:11:35;;;;;;;1.77;0.93;;;;;;;;;;4934174;29;20619;-65
2022/09/12 07:14:03;;;;;;;2.63;1.27;;;;;;;;;;4934638;29;20309;-65
2022/09/12 07:16:30;;;;;;;1.70;1.20;;;;;;;;;;4934121;29;20194;-65
2022/09/12 07:18:58;;;;;;;1.83;0.80;;;;;;;;;;4934186;29;20197;-65
2022/09/12 07:21:24;;;;;;;2.50;0.93;;;;;;;;;;4933594;29;20191;-65
2022/09/12 07:23:54;;;;;;;1.97;1.00;;;;;;;;;;4934205;29;20239;-65
2022/09/12 07:26:20;;;;;;;2.73;0.90;;;;;;;;;;4933478;29;20218;-65
2022/09/12 07:28:52;;;;;;;0.93;0.70;;;;;;;;;;4933621;29;20222;-64
2022/09/12 07:31:19;;;;;;;1.70;0.70;;;;;;;;;;4929158;29;20700;-65
2022/09/12 07:33:46;;;;;;;1.73;0.90;;;;;;;;;;4933446;29;20203;-65
2022/09/12 07:36:21;;;;;;;2.70;0.90;;;;;;;;;;4933452;29;20673;-64
2022/09/12 07:38:47;;;;;;;2.90;1.03;;;;;;;;;;4933599;29;20190;-64
2022/09/12 07:41:18;;;;;;;2.73;0.97;;;;;;;;;;4929385;29;20266;-64
2022/09/12 07:43:45;;;;;;;2.40;1.07;;;;;;;;;;4932543;29;20546;-64
2022/09/12 07:46:13;;;;;;;1.63;1.00;;;;;;;;;;4933407;29;20275;-66
2022/09/12 07:48:39;;;;;;;2.90;0.90;;;;;;;;;;4933353;29;20217;-64
2022/09/12 07:51:07;;;;;;;2.13;0.93;;;;;;;;;;4933186;29;20190;-64
2022/09/12 07:53:37;;;;;;;1.07;0.80;;;;;;;;;;4933348;29;20198;-64
2022/09/12 07:56:07;;;;;;;3.00;1.00;;;;;;;;;;4933456;29;20205;-64
2022/09/12 07:58:34;;;;;;;2.03;1.00;;;;;;;;;;4932607;29;20194;-64
2022/09/12 08:01:02;;;;;;;1.20;0.90;;;;;;;;;;4933321;29;20649;-65
2022/09/12 08:03:28;;;;;;;1.73;1.13;;;;;;;;;;4933375;29;20202;-64
2022/09/12 08:06:01;;;;;;;1.70;0.80;;;;;;;;;;4932931;28;20748;-64
2022/09/12 08:08:28;;;;;;;2.53;1.00;;;;;;;;;;4933242;29;20310;-64
2022/09/12 08:11:01;;;;;;;1.93;0.90;;;;;;;;;;4932251;28;20211;-64
2022/09/12 08:13:28;;;;;;;3.73;0.90;;;;;;;;;;4932120;29;20203;-64
2022/09/12 08:15:58;;;;;;;4.27;1.10;;;;;;;;;;4933110;29;20948;-64
2022/09/12 08:18:26;;;;;;;1.63;0.90;;;;;;;;;;4947666;29;20206;-64
2022/09/12 08:20:59;;;;;;;2.57;1.03;;;;;;;;;;4932894;29;20199;-64
2022/09/12 08:23:27;;;;;;;3.97;1.10;;;;;;;;;;4932873;29;20210;-65
2022/09/12 08:25:55;;;;;;;2.30;0.83;;;;;;;;;;4933393;28;20310;-65
2022/09/12 08:28:22;;;;;;;2.33;0.90;;;;;;;;;;4932844;29;20259;-64
2022/09/12 08:30:49;;;;;;;2.37;1.00;;;;;;;;;;4932073;29;20194;-64
2022/09/12 08:33:15;;;;;;;1.67;1.07;;;;;;;;;;4932566;28;20645;-65
2022/09/12 08:35:42;;;;;;;1.83;1.10;;;;;;;;;;4932109;29;21068;-64
2022/09/12 08:38:09;;;;;;;1.40;0.97;;;;;;;;;;4932929;29;20262;-64
2022/09/12 08:41:02;;;;;;;4.00;1.00;;;;;;;;;;4932297;29;20528;-64
2022/09/12 08:43:55;;;;;;;2.47;0.93;;;;;;;;;;4930650;29;20213;-64
2022/09/12 08:46:24;;;;;;;3.40;1.03;;;;;;;;;;4916533;29;20206;-64
2022/09/12 08:48:50;;;;;;;3.07;0.97;;;;;;;;;;4931351;29;20716;-64
2022/09/12 08:51:18;;;;;;;4.07;1.10;;;;;;;;;;4930976;29;20255;-64
2022/09/12 08:53:46;;;;;;;2.80;1.00;;;;;;;;;;4932350;29;20222;-64
2022/09/12 08:56:16;;;;;;;2.67;1.00;;;;;;;;;;4932682;29;20198;-65
2022/09/12 08:58:43;;;;;;;1.77;0.93;;;;;;;;;;4931257;29;20194;-64
2022/09/12 09:01:13;;;;;;;5.90;1.13;;;;;;;;;;4931422;29;20201;-63
2022/09/12 09:03:49;;;;;;;2.47;1.17;;;;;;;;;;4932369;29;20198;-64
2022/09/12 09:06:17;;;;;;;1.33;1.00;;;;;;;;;;4931691;29;20246;-64
2022/09/12 09:08:59;;;;;;;1.20;0.90;;;;;;;;;;4932044;29;20206;-64
2022/09/12 09:11:35;;;;;;;2.93;0.90;;;;;;;;;;4932206;29;20199;-65
2022/09/12 09:16:47;;;;;;;2.50;1.00;;;;;;;;;;4930977;29;20204;-64
2022/09/12 09:19:31;;;;;;;1.60;0.90;;;;;;;;;;4930965;29;20288;-65
2022/09/12 09:21:59;;;;;;;3.83;1.10;;;;;;;;;;4931022;29;20250;-64
2022/09/12 09:24:33;;;;;;;3.57;1.20;;;;;;;;;;4931639;29;20601;-65
2022/09/12 09:27:00;;;;;;;1.60;0.93;;;;;;;;;;4931839;29;20254;-65
2022/09/12 09:29:35;;;;;;;3.00;1.00;;;;;;;;;;4920425;29;20226;-64
2022/09/12 09:32:03;;;;;;;2.73;1.10;;;;;;;;;;4928553;29;20199;-65
2022/09/12 09:34:30;;;;;;;2.17;0.80;;;;;;;;;;4920644;29;20682;-65
2022/09/12 09:36:57;;;;;;;2.33;0.90;;;;;;;;;;4929783;29;20556;-64
2022/09/12 09:39:30;;;;;;;4.13;0.97;;;;;;;;;;4931856;29;20224;-64
2022/09/12 09:42:15;;;;;;;1.30;0.70;;;;;;;;;;4931491;29;20196;-64
2022/09/12 09:44:45;;;;;;;2.20;0.90;;;;;;;;;;4920592;29;20199;-64
2022/09/12 09:47:12;;;;;;;1.77;1.00;;;;;;;;;;4930360;29;20531;-65
2022/09/12 09:49:38;;;;;;;2.27;0.90;;;;;;;;;;4935633;29;20245;-65
2022/09/12 09:52:06;;;;;;;2.17;0.97;;;;;;;;;;4935095;29;20282;-65
2022/09/12 09:54:39;;;;;;;2.30;0.97;;;;;;;;;;4935670;29;20662;-64
2022/09/12 09:57:24;;;;;;;1.67;0.80;;;;;;;;;;4923518;29;20198;-65
2022/09/12 09:59:51;;;;;;;2.00;0.60;;;;;;;;;;4935448;29;20714;-65
2022/09/12 10:02:17;;;;;;;1.13;0.83;;;;;;;;;;4935323;29;20249;-64
2022/09/12 10:04:54;;;;;;;2.77;0.77;;;;;;;;;;4933344;29;20210;-64
2022/09/12 10:07:21;;;;;;;1.77;0.80;;;;;;;;;;4935027;29;20250;-65
2022/09/12 10:10:13;;;;;;;3.30;1.00;;;;;;;;;;4934947;29;20230;-65
2022/09/12 10:12:40;;;;;;;2.03;0.80;;;;;;;;;;4935238;29;20602;-64
2022/09/12 10:15:25;;;;;;;1.97;0.77;;;;;;;;;;4927705;29;20199;-65
2022/09/12 10:17:54;;;;;;;2.30;0.70;;;;;;;;;;4924456;29;20197;-66
2022/09/12 10:20:34;;;;;;;2.17;0.87;;;;;;;;;;4894102;29;23035;-65
2022/09/12 10:23:22;;;;;;;2.03;0.80;;;;;;;;;;4931153;29;20234;-64
2022/09/12 10:25:52;;;;;;;1.87;0.80;;;;;;;;;;4927678;29;20214;-64
2022/09/12 10:28:25;;;;;;;0.93;0.80;;;;;;;;;;4927984;29;20223;-65
2022/09/12 10:30:53;;;;;;;1.60;0.80;;;;;;;;;;4925580;29;20223;-65
2022/09/12 10:33:20;;;;;;;3.47;1.00;;;;;;;;;;4941877;29;20728;-64
2022/09/12 10:35:47;;;;;;;4.43;0.97;;;;;;;;;;4942070;29;20207;-65
2022/09/12 10:38:17;;;;;;;3.17;0.90;;;;;;;;;;4927252;29;20201;-65
2022/09/12 10:40:44;;;;;;;1.90;0.77;;;;;;;;;;4928201;29;20206;-64
2022/09/12 10:43:17;;;;;;;1.53;0.93;;;;;;;;;;4928710;29;20195;-64
2022/09/12 10:45:47;;;;;;;0.83;0.70;;;;;;;;;;4926575;29;20207;-64
2022/09/12 10:48:24;;;;;;;1.07;0.83;;;;;;;;;;4942010;29;20210;-64
2022/09/12 10:50:51;;;;;;;2.70;0.80;;;;;;;;;;4928014;29;20195;-65
2022/09/12 10:53:25;;;;;;;1.53;0.60;;;;;;;;;;4928079;29;20201;-62
2022/09/12 10:56:02;;;;;;;0.70;0.60;;;;;;;;;;4927013;29;20199;-63
2022/09/12 10:58:32;;;;;;;2.97;1.00;;;;;;;;;;4927310;29;20202;-64
2022/09/12 11:01:13;;;;;;;1.10;0.60;;;;;;;;;;4927658;29;20218;-65
2022/09/12 11:03:39;;;;;;;2.03;0.80;;;;;;;;;;4928400;29;20597;-65
2022/09/12 11:06:07;;;;;;;7.03;1.10;;;;;;;;;;4933482;28;20792;-65
2022/09/12 11:08:37;;;;;;;4.40;1.00;;;;;;;;;;4945156;29;20227;-65
2022/09/12 11:11:04;;;;;;;1.70;0.77;;;;;;;;;;4946417;29;20202;-64
2022/09/12 11:13:40;;;;;;;2.70;0.70;;;;;;;;;;4947261;29;20182;-64
2022/09/12 11:16:13;;;;;;;1.07;0.53;;;;;;;;;;4944294;28;20194;-64
2022/09/12 11:18:55;;;;;;;3.77;0.83;;;;;;;;;;4946114;29;20624;-65
2022/09/12 11:21:43;;;;;;;1.50;0.70;;;;;;;;;;4946919;29;20994;-65
2022/09/12 11:24:20;;;;;;;0.80;0.70;;;;;;;;;;4946075;29;20301;-64
2022/09/12 11:26:56;;;;;;;1.27;0.70;;;;;;;;;;4946892;29;20988;-65
2022/09/12 11:29:30;;;;;;;1.80;0.80;;;;;;;;;;4945396;29;20210;-65
2022/09/12 11:32:06;;;;;;;2.03;0.97;;;;;;;;;;4945146;28;20206;-67
2022/09/12 11:34:33;;;;;;;1.50;0.70;;;;;;;;;;4944450;29;20302;-65
2022/09/12 11:37:03;;;;;;;2.30;0.70;;;;;;;;;;4945012;29;20190;-65
2022/09/12 11:39:36;;;;;;;2.17;0.70;;;;;;;;;;4944913;29;20269;-65
2022/09/12 11:42:02;;;;;;;1.57;0.70;;;;;;;;;;4946002;29;20198;-64
2022/09/12 11:44:36;;;;;;;1.10;0.67;;;;;;;;;;4943919;29;20286;-65
2022/09/12 11:47:12;;;;;;;1.50;0.80;;;;;;;;;;4943476;29;20280;-66
2022/09/12 11:49:40;;;;;;;1.57;0.60;;;;;;;;;;4943425;28;20322;-65
2022/09/12 11:52:12;;;;;;;1.27;0.60;;;;;;;;;;4925864;29;20535;-64
2022/09/12 11:54:58;;;;;;;1.47;0.53;;;;;;;;;;4948576;29;20241;-64
2022/09/12 11:57:43;;;;;;;1.73;1.00;;;;;;;;;;4952160;29;20562;-64
2022/09/12 12:00:20;;;;;;;1.97;0.70;;;;;;;;;;4948517;29;20198;-64
2022/09/12 12:02:54;;;;;;;1.27;0.60;;;;;;;;;;4949487;28;20194;-63
2022/09/12 12:05:25;;;;;;;2.00;0.70;;;;;;;;;;4948682;28;20211;-64
2022/09/12 12:07:53;;;;;;;3.53;0.70;;;;;;;;;;4932340;29;20194;-64
2022/09/12 12:10:20;;;;;;;1.40;0.70;;;;;;;;;;4929911;29;20230;-63
2022/09/12 12:12:50;;;;;;;2.10;0.80;;;;;;;;;;4946910;29;20213;-66
2022/09/12 12:15:17;;;;;;;1.27;0.70;;;;;;;;;;4947977;29;20195;-66
2022/09/12 12:17:44;;;;;;;1.63;0.80;;;;;;;;;;4945940;29;20223;-67
2022/09/12 12:20:14;;;;;;;1.10;0.70;;;;;;;;;;4935719;28;20194;-64
2022/09/12 12:22:54;;;;;;;2.80;0.80;;;;;;;;;;4939901;29;20196;-64
2022/09/12 12:25:23;;;;;;;1.77;0.70;;;;;;;;;;4946696;28;20218;-64
2022/09/12 12:28:00;;;;;;;2.10;0.90;;;;;;;;;;4946697;29;20228;-63
2022/09/12 12:30:30;;;;;;;1.40;0.80;;;;;;;;;;4944223;29;20230;-64
2022/09/12 12:33:00;;;;;;;1.53;0.70;;;;;;;;;;4943716;29;20201;-64
2022/09/12 12:35:38;;;;;;;0.80;0.80;;;;;;;;;;4942621;28;20281;-64
2022/09/12 12:38:24;;;;;;;1.00;0.60;;;;;;;;;;4944185;29;20280;-64
2022/09/12 12:40:51;;;;;;;2.37;0.80;;;;;;;;;;4943327;29;20827;-64
2022/09/12 12:43:30;;;;;;;1.53;0.60;;;;;;;;;;4944434;29;20194;-64
2022/09/12 12:46:01;;;;;;;1.27;0.70;;;;;;;;;;4943016;29;20202;-66
2022/09/12 12:48:28;;;;;;;3.17;0.77;;;;;;;;;;4944581;29;20195;-65
2022/09/12 12:51:13;;;;;;;7.20;1.53;;;;;;;;;;4943640;29;20198;-64
2022/09/12 12:53:40;;;;;;;0.67;0.60;;;;;;;;;;4942591;28;20257;-65
2022/09/12 12:56:19;;;;;;;0.83;0.70;;;;;;;;;;4943643;29;20209;-66
2022/09/12 12:58:48;;;;;;;2.13;0.67;;;;;;;;;;4940720;29;20186;-64
2022/09/12 13:01:21;;;;;;;1.83;0.70;;;;;;;;;;4943921;29;20210;-65
2022/09/12 13:04:03;;;;;;;1.70;0.70;;;;;;;;;;4944741;29;20866;-64
2022/09/12 13:06:30;;;;;;;0.90;0.70;;;;;;;;;;4939119;29;21915;-65
2022/09/12 13:09:17;;;;;;;0.70;0.63;;;;;;;;;;4924943;29;20220;-66
2022/09/12 13:11:44;;;;;;;2.30;0.83;;;;;;;;;;4923985;29;20209;-64
2022/09/12 13:14:34;;;;;;;1.90;0.70;;;;;;;;;;4925523;29;20205;-64
2022/09/12 13:17:03;;;;;;;1.90;0.60;;;;;;;;;;4920052;29;20290;-65
2022/09/12 13:19:31;;;;;;;2.73;0.80;;;;;;;;;;4924347;29;20198;-65
2022/09/12 13:22:02;;;;;;;6.50;1.50;;;;;;;;;;4938635;28;20253;-65
2022/09/12 13:24:29;;;;;;;1.10;0.60;;;;;;;;;;4925322;29;20699;-65
2022/09/12 13:26:56;;;;;;;0.87;0.70;;;;;;;;;;4922166;29;20224;-67
2022/09/12 13:29:24;;;;;;;1.40;0.80;;;;;;;;;;4924862;29;20330;-63
2022/09/12 13:31:55;;;;;;;1.73;0.70;;;;;;;;;;4923428;29;20229;-65
2022/09/12 13:34:45;;;;;;;0.93;0.60;;;;;;;;;;4939152;29;20209;-65
2022/09/12 13:37:18;;;;;;;1.70;0.60;;;;;;;;;;4921167;29;20223;-65
2022/09/12 13:39:46;;;;;;;4.53;0.77;;;;;;;;;;4924000;29;20199;-65
2022/09/12 13:42:31;;;;;;;4.80;0.90;;;;;;;;;;4923351;29;20748;-64
2022/09/12 13:45:02;;;;;;;3.10;0.70;;;;;;;;;;4924843;29;20282;-67
2022/09/12 13:47:36;;;;;;;4.13;0.97;;;;;;;;;;4925566;29;20199;-65
2022/09/12 13:50:03;;;;;;;3.10;0.87;;;;;;;;;;4925218;29;20210;-64
2022/09/12 13:52:34;;;;;;;2.83;0.80;;;;;;;;;;4925095;29;20222;-67
2022/09/12 13:55:01;;;;;;;2.87;0.90;;;;;;;;;;4925177;29;20194;-65
2022/09/12 13:57:30;;;;;;;11.23;1.50;;;;;;;;;;4925365;29;20195;-64
2022/09/12 13:59:57;;;;;;;2.93;1.00;;;;;;;;;;4924140;29;20258;-65
2022/09/12 14:02:25;;;;;;;0.77;0.67;;;;;;;;;;4924829;29;20210;-64
2022/09/12 14:05:10;;;;;;;3.07;0.70;;;;;;;;;;4924788;29;20195;-67
2022/09/12 14:07:58;;;;;;;1.77;0.60;;;;;;;;;;4943155;29;20257;-64
2022/09/12 14:10:27;;;;;;;1.93;0.90;;;;;;;;;;4942694;29;20292;-63
2022/09/12 14:12:56;;;;;;;3.00;1.00;;;;;;;;;;4942392;29;20191;-64
2022/09/12 14:15:26;;;;;;;2.60;0.90;;;;;;;;;;4943178;28;20226;-65
2022/09/12 14:17:54;;;;;;;1.20;0.80;;;;;;;;;;4942081;29;20205;-62
2022/09/12 14:20:22;;;;;;;1.33;0.87;;;;;;;;;;4943709;29;20207;-65
2022/09/12 14:22:51;;;;;;;1.50;0.77;;;;;;;;;;4940868;29;20198;-62
2022/09/12 14:25:39;;;;;;;1.03;0.70;;;;;;;;;;4930338;29;21011;-63
2022/09/12 14:28:09;;;;;;;1.33;0.70;;;;;;;;;;4943398;29;20575;-65
2022/09/12 14:30:37;;;;;;;2.47;0.90;;;;;;;;;;4941673;29;20230;-64
2022/09/12 14:33:10;;;;;;;2.53;0.80;;;;;;;;;;4925736;29;20539;-63
2022/09/12 14:35:42;;;;;;;1.40;0.70;;;;;;;;;;4946736;29;20722;-63
2022/09/12 14:38:15;;;;;;;3.57;1.00;;;;;;;;;;4946626;28;20236;-65
2022/09/12 14:40:42;;;;;;;2.77;1.00;;;;;;;;;;4946057;29;20203;-64
2022/09/12 14:43:29;;;;;;;3.63;0.97;;;;;;;;;;4944802;29;20613;-65
2022/09/12 14:46:00;;;;;;;1.50;0.80;;;;;;;;;;4944790;29;20660;-64
2022/09/12 14:48:27;;;;;;;2.00;0.70;;;;;;;;;;4947207;29;20202;-64
2022/09/12 14:50:54;;;;;;;1.63;0.90;;;;;;;;;;4945839;29;20333;-65
2022/09/12 14:53:29;;;;;;;2.23;0.80;;;;;;;;;;4945871;29;20202;-64
2022/09/12 14:55:57;;;;;;;1.37;0.73;;;;;;;;;;4947804;29;20193;-64
2022/09/12 14:58:25;;;;;;;2.37;0.80;;;;;;;;;;4951579;28;20194;-65
2022/09/12 15:00:53;;;;;;;3.93;0.93;;;;;;;;;;4920965;29;20206;-65
2022/09/12 15:03:24;;;;;;;1.20;0.70;;;;;;;;;;4953283;29;20198;-64
2022/09/12 15:05:51;;;;;;;1.50;0.83;;;;;;;;;;4952901;29;20230;-65